createdAt,value
2023-02-12T00:01:08.888Z,11.15
2023-02-12T00:03:36.007Z,11.06
2023-02-12T00:06:02.562Z,11.07
2023-02-12T00:08:29.197Z,11.05
2023-02-12T00:10:55.857Z,10.82
2023-02-12T00:13:23.866Z,10.91
2023-02-12T00:15:50.582Z,10.96
2023-02-12T00:18:17.145Z,10.87
2023-02-12T00:20:43.762Z,10.80
2023-02-12T00:23:11.236Z,10.72
2023-02-12T00:25:41.333Z,10.89
2023-02-12T00:28:08.303Z,11.01
2023-02-12T00:30:35.996Z,11.01
2023-02-12T00:33:02.808Z,10.84
2023-02-12T00:35:29.346Z,10.91
2023-02-12T00:37:56.082Z,10.96
2023-02-12T00:40:22.598Z,11.01
2023-02-12T00:42:49.185Z,10.82
2023-02-12T00:45:17.191Z,10.44
2023-02-12T00:47:43.768Z,10.58
2023-02-12T00:50:10.834Z,10.80
2023-02-12T00:52:37.659Z,10.78
2023-02-12T00:55:04.924Z,10.80
2023-02-12T00:57:33.360Z,10.96
2023-02-12T00:59:59.997Z,10.95
2023-02-12T01:02:26.541Z,11.05
2023-02-12T01:04:53.276Z,11.18
2023-02-12T01:07:22.888Z,11.11
2023-02-12T01:09:49.487Z,11.13
2023-02-12T01:12:16.042Z,11.12
2023-02-12T01:14:42.704Z,11.13
2023-02-12T01:17:09.674Z,11.25
2023-02-12T01:19:36.499Z,11.18
2023-02-12T01:22:03.760Z,11.22
2023-02-12T01:24:30.326Z,11.30
2023-02-12T01:26:58.383Z,10.96
2023-02-12T01:29:24.933Z,10.89
2023-02-12T01:31:51.630Z,11.07
2023-02-12T01:34:18.281Z,11.02
2023-02-12T01:36:44.813Z,11.01
2023-02-12T01:39:12.074Z,11.01
2023-02-12T01:41:44.245Z,11.08
2023-02-12T01:44:13.779Z,11.03
2023-02-12T01:46:40.797Z,11.04
2023-02-12T01:49:12.733Z,11.08
2023-02-12T01:51:40.924Z,10.93
2023-02-12T01:54:10.426Z,11.02
2023-02-12T01:56:38.278Z,10.80
2023-02-12T01:59:05.595Z,10.94
2023-02-12T02:01:33.580Z,10.91
2023-02-12T02:04:05.317Z,10.86
2023-02-12T02:06:36.011Z,10.89
2023-02-12T02:09:03.760Z,10.91
2023-02-12T02:11:50.600Z,10.91
2023-02-12T02:14:32.999Z,10.92
2023-02-12T02:17:04.740Z,10.87
2023-02-12T02:19:31.217Z,10.94
2023-02-12T02:22:17.368Z,10.91
2023-02-12T02:25:32.002Z,10.85
2023-02-12T02:28:29.279Z,11.02
2023-02-12T02:31:08.053Z,10.85
2023-02-12T02:33:44.451Z,10.91
2023-02-12T02:36:10.953Z,10.88
2023-02-12T02:38:55.847Z,10.85
2023-02-12T02:41:38.954Z,10.88
2023-02-12T02:44:14.280Z,10.78
2023-02-12T02:46:49.077Z,10.88
2023-02-12T02:49:37.416Z,10.85
2023-02-12T02:52:11.429Z,10.88
2023-02-12T02:54:44.819Z,10.83
2023-02-12T02:57:28.124Z,10.89
2023-02-12T03:00:03.932Z,10.79
2023-02-12T03:02:37.363Z,10.79
2023-02-12T03:05:13.117Z,10.91
2023-02-12T03:07:49.843Z,11.01
2023-02-12T03:10:45.686Z,10.93
2023-02-12T03:13:27.389Z,10.95
2023-02-12T03:16:02.385Z,10.94
2023-02-12T03:18:36.666Z,10.99
2023-02-12T03:21:10.688Z,10.96
2023-02-12T03:23:51.287Z,10.97
2023-02-12T03:26:24.631Z,10.90
2023-02-12T03:28:51.527Z,10.89
2023-02-12T03:31:45.490Z,10.87
2023-02-12T03:34:27.373Z,10.89
2023-02-12T03:37:05.416Z,10.84
2023-02-12T03:39:56.673Z,10.89
2023-02-12T03:42:38.101Z,10.94
2023-02-12T03:45:16.898Z,10.57
2023-02-12T03:48:01.862Z,10.81
2023-02-12T03:50:48.413Z,10.83
2023-02-12T03:53:14.989Z,10.77
2023-02-12T03:55:45.280Z,10.78
2023-02-12T03:58:19.312Z,10.83
2023-02-12T04:00:46.530Z,10.97
2023-02-12T04:03:13.420Z,10.96
2023-02-12T04:05:40.036Z,10.83
2023-02-12T04:08:11.172Z,10.88
2023-02-12T04:11:13.075Z,10.86
2023-02-12T04:13:53.720Z,10.88
2023-02-12T04:16:44.319Z,10.83
2023-02-12T04:19:14.882Z,10.82
2023-02-12T04:21:59.788Z,10.71
2023-02-12T04:24:40.062Z,10.60
2023-02-12T04:27:45.978Z,10.45
2023-02-12T04:30:25.022Z,10.70
2023-02-12T04:33:03.572Z,10.71
2023-02-12T04:35:35.783Z,10.81
2023-02-12T04:38:08.677Z,10.83
2023-02-12T04:40:38.475Z,10.98
2023-02-12T04:43:05.123Z,10.74
2023-02-12T04:45:34.106Z,10.50
2023-02-12T04:48:01.635Z,10.70
2023-02-12T04:50:42.009Z,10.88
2023-02-12T04:53:10.186Z,10.80
2023-02-12T04:55:36.716Z,10.84
2023-02-12T04:58:03.555Z,10.84
2023-02-12T05:00:30.202Z,10.73
2023-02-12T05:02:56.900Z,10.63
2023-02-12T05:05:23.540Z,10.41
2023-02-12T05:07:50.242Z,10.48
2023-02-12T05:10:16.987Z,10.44
2023-02-12T05:12:43.526Z,10.42
2023-02-12T05:15:10.623Z,10.46
2023-02-12T05:17:38.136Z,10.52
2023-02-12T05:20:05.848Z,10.54
2023-02-12T05:22:32.355Z,10.54
2023-02-12T05:24:58.881Z,10.51
2023-02-12T05:27:25.472Z,10.58
2023-02-12T05:29:52.021Z,10.59
2023-02-12T05:32:18.600Z,10.57
2023-02-12T05:34:45.235Z,10.60
2023-02-12T05:37:11.905Z,10.70
2023-02-12T05:39:38.539Z,10.63
2023-02-12T05:42:05.089Z,10.59
2023-02-12T05:44:31.651Z,10.65
2023-02-12T05:46:58.160Z,10.60
2023-02-12T05:49:24.725Z,10.56
2023-02-12T05:51:51.257Z,10.58
2023-02-12T05:54:17.802Z,10.53
2023-02-12T05:56:46.562Z,10.58
2023-02-12T05:59:17.463Z,10.61
2023-02-12T06:01:45.713Z,10.59
2023-02-12T06:04:20.265Z,10.54
2023-02-12T06:06:47.118Z,10.53
2023-02-12T06:09:14.711Z,10.51
2023-02-12T06:11:41.960Z,10.48
2023-02-12T06:14:11.021Z,10.48
2023-02-12T06:16:37.633Z,10.40
2023-02-12T06:19:05.826Z,10.42
2023-02-12T06:21:33.514Z,10.49
2023-02-12T06:24:00.350Z,10.46
2023-02-12T06:26:27.606Z,10.46
2023-02-12T06:28:54.252Z,10.52
2023-02-12T06:31:35.617Z,10.54
2023-02-12T06:34:05.795Z,10.57
2023-02-12T06:36:32.543Z,10.53
2023-02-12T06:39:02.299Z,10.56
2023-02-12T06:41:28.991Z,10.59
2023-02-12T06:43:55.578Z,10.68
2023-02-12T06:46:22.768Z,10.77
2023-02-12T06:48:53.447Z,10.77
2023-02-12T06:51:23.608Z,10.84
2023-02-12T06:53:51.363Z,10.83
2023-02-12T06:56:18.564Z,10.81
2023-02-12T06:58:47.447Z,10.90
2023-02-12T07:01:17.919Z,10.88
2023-02-12T07:03:49.132Z,10.94
2023-02-12T07:06:16.193Z,10.91
2023-02-12T07:08:43.057Z,11.02
2023-02-12T07:11:09.784Z,11.11
2023-02-12T07:13:36.563Z,11.12
2023-02-12T07:16:08.624Z,11.23
2023-02-12T07:18:36.108Z,11.21
2023-02-12T07:21:03.542Z,11.24
2023-02-12T07:23:31.050Z,11.35
2023-02-12T07:26:02.506Z,11.36
2023-02-12T07:28:29.112Z,11.41
2023-02-12T07:30:55.689Z,11.47
2023-02-12T07:33:22.264Z,11.53
2023-02-12T07:35:48.868Z,11.56
2023-02-12T07:38:15.540Z,11.59
2023-02-12T07:40:42.060Z,11.70
2023-02-12T07:43:08.571Z,11.77
2023-02-12T07:45:36.116Z,11.84
2023-02-12T07:48:02.675Z,11.91
2023-02-12T07:50:29.216Z,12.04
2023-02-12T07:52:55.847Z,11.98
2023-02-12T07:55:22.590Z,12.01
2023-02-12T07:57:49.144Z,12.10
2023-02-12T08:00:16.168Z,12.21
2023-02-12T08:02:42.713Z,12.28
2023-02-12T08:05:09.585Z,12.30
2023-02-12T08:07:36.210Z,12.36
2023-02-12T08:10:02.829Z,12.42
2023-02-12T08:12:29.403Z,12.46
2023-02-12T08:14:55.921Z,12.52
2023-02-12T08:17:22.420Z,12.38
2023-02-12T08:19:49.003Z,12.05
2023-02-12T08:22:15.577Z,12.24
2023-02-12T08:24:42.645Z,12.13
2023-02-12T08:27:09.139Z,12.38
2023-02-12T08:29:35.712Z,12.43
2023-02-12T08:32:03.917Z,12.27
2023-02-12T08:34:35.234Z,12.58
2023-02-12T08:37:04.177Z,12.71
2023-02-12T08:39:31.104Z,12.81
2023-02-12T08:41:59.565Z,12.95
2023-02-12T08:44:26.355Z,12.96
2023-02-12T08:46:55.538Z,13.08
2023-02-12T08:49:25.580Z,13.16
2023-02-12T08:51:54.653Z,13.28
2023-02-12T08:54:23.954Z,13.36
2023-02-12T08:56:54.051Z,13.48
2023-02-12T08:59:20.657Z,13.56
2023-02-12T09:01:51.099Z,13.70
2023-02-12T09:04:26.184Z,13.84
2023-02-12T09:06:53.110Z,13.94
2023-02-12T09:09:19.958Z,14.13
2023-02-12T09:11:46.863Z,14.16
2023-02-12T09:14:16.065Z,14.21
2023-02-12T09:16:43.032Z,14.51
2023-02-12T09:19:12.889Z,14.45
2023-02-12T09:21:39.581Z,14.72
2023-02-12T09:24:06.280Z,14.60
2023-02-12T09:26:32.901Z,14.59
2023-02-12T09:29:01.411Z,14.72
2023-02-12T09:31:30.051Z,14.44
2023-02-12T09:34:02.556Z,14.55
2023-02-12T09:36:29.759Z,14.90
2023-02-12T09:38:59.150Z,15.33
2023-02-12T09:42:00.189Z,15.25
2023-02-12T09:44:36.237Z,15.24
2023-02-12T09:47:26.816Z,15.04
2023-02-12T09:50:03.499Z,15.63
2023-02-12T09:52:30.942Z,15.67
2023-02-12T09:54:58.591Z,16.05
2023-02-12T09:57:33.668Z,16.29
2023-02-12T10:00:08.478Z,16.37
2023-02-12T10:02:40.217Z,15.57
2023-02-12T10:05:17.591Z,15.50
2023-02-12T10:07:53.548Z,15.41
2023-02-12T10:10:23.308Z,15.50
2023-02-12T10:12:56.069Z,15.36
2023-02-12T10:15:34.862Z,15.99
2023-02-12T10:18:30.150Z,15.93
2023-02-12T10:21:11.035Z,16.12
2023-02-12T10:24:06.983Z,15.11
2023-02-12T10:26:40.033Z,15.25
2023-02-12T10:29:28.784Z,15.89
2023-02-12T10:31:59.982Z,16.27
2023-02-12T10:34:32.745Z,16.58
2023-02-12T10:37:23.294Z,16.18
2023-02-12T10:39:58.024Z,15.78
2023-02-12T10:42:42.759Z,15.01
2023-02-12T10:45:18.380Z,15.70
2023-02-12T10:47:46.697Z,15.55
2023-02-12T10:50:37.934Z,15.53
2023-02-12T10:53:04.513Z,15.60
2023-02-12T10:55:36.877Z,15.40
2023-02-12T10:58:05.371Z,15.79
2023-02-12T11:00:34.653Z,16.10
2023-02-12T11:03:13.670Z,16.48
2023-02-12T11:05:42.466Z,15.85
2023-02-12T11:08:31.332Z,16.76
2023-02-12T11:11:10.826Z,17.25
2023-02-12T11:13:41.671Z,17.76
2023-02-12T11:16:08.989Z,19.54
2023-02-12T11:18:37.401Z,20.47
2023-02-12T11:21:10.384Z,21.25
2023-02-12T11:23:38.315Z,22.83
2023-02-12T11:26:18.499Z,24.20
2023-02-12T11:29:19.017Z,25.77
2023-02-12T11:32:01.757Z,27.61
2023-02-12T11:34:29.773Z,28.72
2023-02-12T11:36:57.728Z,29.42
2023-02-12T11:39:28.955Z,29.66
2023-02-12T11:42:03.788Z,28.95
2023-02-12T11:44:36.017Z,27.61
2023-02-12T11:47:09.211Z,27.30
2023-02-12T11:49:44.395Z,27.28
2023-02-12T11:52:27.625Z,26.56
2023-02-12T11:54:59.512Z,26.87
2023-02-12T11:57:38.231Z,25.55
2023-02-12T12:00:19.409Z,27.62
2023-02-12T12:03:02.575Z,28.32
2023-02-12T12:05:38.702Z,28.79
2023-02-12T12:08:16.751Z,28.71
2023-02-12T12:10:52.835Z,26.58
2023-02-12T12:13:27.239Z,26.39
2023-02-12T12:16:46.700Z,26.05
2023-02-12T12:19:56.778Z,24.50
2023-02-12T12:22:51.671Z,24.95
2023-02-12T12:25:27.279Z,24.57
2023-02-12T12:28:08.250Z,25.81
2023-02-12T12:30:41.056Z,24.75
2023-02-12T12:33:17.176Z,25.04
2023-02-12T12:36:13.014Z,25.61
2023-02-12T12:38:58.966Z,25.48
2023-02-12T12:42:03.133Z,25.24
2023-02-12T12:45:01.841Z,25.90
2023-02-12T12:47:54.728Z,26.66
2023-02-12T12:50:43.360Z,27.11
2023-02-12T12:53:20.023Z,26.07
2023-02-12T12:56:11.456Z,26.47
2023-02-12T12:58:44.037Z,26.12
2023-02-12T13:01:10.977Z,27.27
2023-02-12T13:03:56.317Z,29.82
2023-02-12T13:06:41.184Z,29.70
2023-02-12T13:09:33.459Z,28.36
2023-02-12T13:12:28.263Z,29.60
2023-02-12T13:14:57.704Z,31.64
2023-02-12T13:17:33.335Z,30.87
2023-02-12T13:20:09.606Z,30.59
2023-02-12T13:22:59.155Z,28.41
2023-02-12T13:25:36.008Z,27.82
2023-02-12T13:28:05.871Z,28.43
2023-02-12T13:30:52.555Z,27.37
2023-02-12T13:33:28.861Z,26.51
2023-02-12T13:36:00.341Z,26.72
2023-02-12T13:38:34.573Z,27.63
2023-02-12T13:41:05.777Z,27.61
2023-02-12T13:43:53.633Z,28.51
2023-02-12T13:47:04.662Z,28.89
2023-02-12T13:49:39.849Z,29.08
2023-02-12T13:52:14.178Z,26.93
2023-02-12T13:54:46.436Z,25.46
2023-02-12T13:57:18.834Z,25.54
2023-02-12T13:59:47.888Z,26.49
2023-02-12T14:02:33.095Z,25.35
2023-02-12T14:05:13.073Z,26.00
2023-02-12T14:07:44.101Z,24.83
2023-02-12T14:10:31.161Z,23.56
2023-02-12T14:13:12.485Z,23.62
2023-02-12T14:15:46.100Z,22.67
2023-02-12T14:18:30.672Z,21.11
2023-02-12T14:21:11.984Z,20.47
2023-02-12T14:23:50.701Z,20.86
2023-02-12T14:26:25.014Z,19.21
2023-02-12T14:29:01.902Z,19.51
2023-02-12T14:31:39.295Z,19.19
2023-02-12T14:34:06.039Z,17.63
2023-02-12T14:36:32.663Z,18.67
2023-02-12T14:39:01.373Z,18.80
2023-02-12T14:41:43.046Z,20.21
2023-02-12T14:44:20.462Z,21.20
2023-02-12T14:46:55.908Z,22.00
2023-02-12T14:49:31.135Z,23.13
2023-02-12T14:51:57.948Z,23.27
2023-02-12T14:54:33.230Z,24.46
2023-02-12T14:57:04.999Z,25.03
2023-02-12T14:59:37.632Z,25.34
2023-02-12T15:02:07.633Z,24.56
2023-02-12T15:04:38.073Z,24.97
2023-02-12T15:07:10.406Z,25.24
2023-02-12T15:09:42.470Z,23.54
2023-02-12T15:12:32.627Z,22.20
2023-02-12T15:15:12.565Z,22.70
2023-02-12T15:17:42.305Z,21.45
2023-02-12T15:20:22.495Z,20.03
2023-02-12T15:22:49.034Z,18.73
2023-02-12T15:25:26.847Z,18.45
2023-02-12T15:28:02.862Z,17.75
2023-02-12T15:30:34.118Z,17.24
2023-02-12T15:33:04.920Z,16.88
2023-02-12T15:35:34.281Z,16.61
2023-02-12T15:38:01.868Z,16.11
2023-02-12T15:40:30.785Z,15.73
2023-02-12T15:42:59.076Z,15.00
2023-02-12T15:45:34.776Z,15.28
2023-02-12T15:48:15.732Z,14.73
2023-02-12T15:51:14.131Z,14.78
2023-02-12T15:53:41.563Z,14.73
2023-02-12T15:56:18.141Z,14.16
2023-02-12T15:58:52.314Z,14.59
2023-02-12T16:01:21.707Z,14.53
2023-02-12T16:03:57.954Z,14.41
2023-02-12T16:06:27.244Z,14.18
2023-02-12T16:09:23.201Z,14.09
2023-02-12T16:11:50.330Z,13.80
2023-02-12T16:14:40.752Z,13.92
2023-02-12T16:17:35.155Z,13.81
2023-02-12T16:20:04.288Z,13.71
2023-02-12T16:22:41.983Z,13.54
2023-02-12T16:25:32.196Z,13.43
2023-02-12T16:28:03.916Z,13.38
2023-02-12T16:30:42.232Z,13.33
2023-02-12T16:33:39.939Z,13.27
2023-02-12T16:36:13.250Z,13.07
2023-02-12T16:38:45.507Z,12.94
2023-02-12T16:41:17.874Z,12.69
2023-02-12T16:43:45.394Z,12.71
2023-02-12T16:46:12.876Z,12.53
2023-02-12T16:48:42.766Z,12.67
2023-02-12T16:51:23.364Z,12.49
2023-02-12T16:53:53.778Z,12.32
2023-02-12T16:56:22.353Z,12.46
2023-02-12T16:58:51.852Z,12.31
2023-02-12T17:01:22.946Z,12.23
2023-02-12T17:03:51.159Z,12.35
2023-02-12T17:06:20.076Z,12.35
2023-02-12T17:08:46.636Z,12.25
2023-02-12T17:11:16.031Z,12.31
2023-02-12T17:13:42.545Z,12.25
2023-02-12T17:16:11.265Z,12.25
2023-02-12T17:18:39.518Z,12.20
2023-02-12T17:21:37.854Z,12.08
2023-02-12T17:24:16.569Z,12.00
2023-02-12T17:26:43.229Z,12.01
2023-02-12T17:29:10.836Z,11.98
2023-02-12T17:31:38.074Z,11.89
2023-02-12T17:34:05.199Z,11.88
2023-02-12T17:36:31.907Z,11.81
2023-02-12T17:38:58.497Z,11.77
2023-02-12T17:41:25.104Z,11.74
2023-02-12T17:43:51.744Z,11.69
2023-02-12T17:46:20.687Z,11.60
2023-02-12T17:48:47.631Z,11.64
2023-02-12T17:51:14.524Z,11.55
2023-02-12T17:53:41.445Z,11.44
2023-02-12T17:56:18.963Z,11.45
2023-02-12T17:58:47.173Z,11.47
2023-02-12T18:01:17.012Z,11.39
2023-02-12T18:03:43.971Z,11.38
2023-02-12T18:06:13.959Z,11.31
2023-02-12T18:08:41.624Z,11.25
2023-02-12T18:11:10.273Z,11.24
2023-02-12T18:13:37.967Z,11.22
2023-02-12T18:16:09.915Z,11.15
2023-02-12T18:18:37.199Z,11.21
2023-02-12T18:21:11.942Z,11.17
2023-02-12T18:23:39.445Z,11.09
2023-02-12T18:26:14.608Z,11.09
2023-02-12T18:28:41.180Z,11.13
2023-02-12T18:31:08.401Z,11.04
2023-02-12T18:33:36.042Z,11.07
2023-02-12T18:36:08.871Z,10.88
2023-02-12T18:38:37.149Z,11.00
2023-02-12T18:41:12.711Z,11.02
2023-02-12T18:43:39.817Z,10.86
2023-02-12T18:46:12.525Z,10.58
2023-02-12T18:48:39.666Z,10.59
2023-02-12T18:51:08.044Z,10.71
2023-02-12T18:53:34.949Z,10.44
2023-02-12T18:56:09.770Z,10.76
2023-02-12T18:58:37.010Z,10.64
2023-02-12T19:01:19.158Z,10.44
2023-02-12T19:03:48.500Z,10.73
2023-02-12T19:06:15.196Z,10.60
2023-02-12T19:08:42.022Z,10.53
2023-02-12T19:11:10.949Z,10.62
2023-02-12T19:13:38.108Z,10.63
2023-02-12T19:16:15.613Z,10.66
2023-02-12T19:18:42.463Z,10.63
2023-02-12T19:21:14.149Z,10.66
2023-02-12T19:23:40.774Z,10.56
2023-02-12T19:26:09.578Z,10.59
2023-02-12T19:28:38.201Z,10.60
2023-02-12T19:31:19.109Z,10.59
2023-02-12T19:33:46.995Z,10.65
2023-02-12T19:36:16.943Z,10.64
2023-02-12T19:38:45.388Z,10.70
2023-02-12T19:41:15.525Z,10.74
2023-02-12T19:43:42.381Z,10.65
2023-02-12T19:46:18.019Z,10.76
2023-02-12T19:48:47.099Z,10.63
2023-02-12T19:51:20.406Z,10.80
2023-02-12T19:53:47.839Z,10.84
2023-02-12T19:56:15.810Z,10.84
2023-02-12T19:58:42.870Z,10.85
2023-02-12T20:01:15.315Z,10.86
2023-02-12T20:03:42.286Z,10.91
2023-02-12T20:06:13.010Z,10.80
2023-02-12T20:08:41.451Z,10.82
2023-02-12T20:11:11.129Z,10.82
2023-02-12T20:13:37.801Z,10.82
2023-02-12T20:16:06.634Z,10.76
2023-02-12T20:18:33.600Z,10.75
2023-02-12T20:21:00.853Z,10.47
2023-02-12T20:23:27.459Z,9.47
2023-02-12T20:25:53.983Z,10.06
2023-02-12T20:28:20.796Z,10.31
2023-02-12T20:30:48.492Z,10.48
2023-02-12T20:33:15.407Z,10.23
2023-02-12T20:35:41.971Z,10.48
2023-02-12T20:38:08.544Z,10.53
2023-02-12T20:40:35.107Z,10.52
2023-02-12T20:43:01.715Z,10.51
2023-02-12T20:45:28.370Z,10.36
2023-02-12T20:47:55.018Z,10.44
2023-02-12T20:50:21.560Z,10.32
2023-02-12T20:52:48.207Z,10.30
2023-02-12T20:55:14.847Z,9.96
2023-02-12T20:57:41.397Z,9.85
2023-02-12T21:00:08.723Z,10.14
2023-02-12T21:02:35.460Z,10.15
2023-02-12T21:05:02.053Z,10.30
2023-02-12T21:07:28.595Z,10.32
2023-02-12T21:09:55.148Z,10.38
2023-02-12T21:12:21.695Z,10.43
2023-02-12T21:14:48.224Z,10.45
2023-02-12T21:17:14.761Z,10.45
2023-02-12T21:19:41.373Z,10.49
2023-02-12T21:22:07.939Z,10.33
2023-02-12T21:24:34.603Z,10.33
2023-02-12T21:27:01.214Z,10.03
2023-02-12T21:29:29.176Z,9.88
2023-02-12T21:31:55.929Z,9.99
2023-02-12T21:34:23.443Z,10.09
2023-02-12T21:36:52.380Z,10.00
2023-02-12T21:39:25.439Z,10.18
2023-02-12T21:41:54.314Z,10.12
2023-02-12T21:44:21.844Z,10.01
2023-02-12T21:46:48.864Z,10.13
2023-02-12T21:49:24.430Z,10.09
2023-02-12T21:51:53.075Z,10.06
2023-02-12T21:54:19.998Z,10.03
2023-02-12T21:56:48.084Z,9.93
2023-02-12T21:59:15.645Z,9.82
2023-02-12T22:01:44.880Z,9.97
2023-02-12T22:04:11.927Z,9.89
2023-02-12T22:06:40.538Z,9.65
2023-02-12T22:09:08.906Z,9.84
2023-02-12T22:11:37.225Z,9.75
2023-02-12T22:14:05.034Z,9.84
2023-02-12T22:16:31.734Z,9.88
2023-02-12T22:19:00.198Z,9.66
2023-02-12T22:21:29.462Z,9.89
2023-02-12T22:23:56.734Z,9.83
2023-02-12T22:26:26.680Z,9.97
2023-02-12T22:29:02.941Z,9.81
2023-02-12T22:31:32.338Z,9.73
2023-02-12T22:34:01.855Z,9.84
2023-02-12T22:36:29.354Z,9.76
2023-02-12T22:38:58.778Z,9.79
2023-02-12T22:41:26.499Z,9.90
2023-02-12T22:43:53.117Z,9.68
2023-02-12T22:46:19.801Z,9.66
2023-02-12T22:48:46.921Z,9.65
2023-02-12T22:51:22.327Z,9.68
2023-02-12T22:53:49.158Z,9.63
2023-02-12T22:56:16.558Z,9.60
2023-02-12T22:58:44.464Z,9.66
2023-02-12T23:01:14.630Z,9.71
2023-02-12T23:03:42.300Z,9.72
2023-02-12T23:06:12.548Z,9.65
2023-02-12T23:08:39.422Z,9.62
2023-02-12T23:11:08.399Z,9.64
2023-02-12T23:13:36.297Z,9.63
2023-02-12T23:16:04.020Z,9.51
2023-02-12T23:18:30.583Z,9.51
2023-02-12T23:20:57.578Z,9.58
2023-02-12T23:23:24.390Z,9.54
2023-02-12T23:25:51.204Z,9.32
2023-02-12T23:28:17.786Z,9.39
2023-02-12T23:30:44.562Z,9.04
2023-02-12T23:33:11.483Z,9.41
2023-02-12T23:35:38.040Z,9.50
2023-02-12T23:38:05.020Z,9.27
2023-02-12T23:40:32.507Z,9.38
2023-02-12T23:42:59.402Z,9.36
2023-02-12T23:45:27.328Z,9.38
2023-02-12T23:47:54.326Z,9.57
2023-02-12T23:50:21.085Z,9.65
2023-02-12T23:52:47.641Z,9.59
2023-02-12T23:55:14.285Z,9.51
2023-02-12T23:57:40.818Z,9.53
